Disclaimer

Please do not use the information listed here in-flight or in-navigation, as they are not provided to us by the airports but are provided by volunteers, so they might be outdated.

Search


Regions


Airport information page

Radio informations:
Tower (TWR) - 122.1 MHz
RADAR - 125.225 MHz
Ground (GND) - 122.1 MHz
Automatic Terminal Information Service (ATIS) - 120.725 MHz
Approach (APP) - 134.35 MHz

Airport informations:
Latitude: 53° 14' 53.15" N
Longitude: 004° 32' 07.22" W
Elevation: 37 feet - 11 meters
Operating hours: Remarks
Operating agency: Military
Timezone: UTC 0(+1DT) - Last Sunday in March to last Sunday in October
Fuel: Jet A1+, Jet A1 with icing inhibitor.

Runway information:
01/19 - 5377 x 151 feet< - >1639 x 46 meters
08/26 - 4200 x 151 feet< - >1280 x 46 meters
14/32 - 7513 x 151 feet< - >2290 x 46 meters

Recent METARs:
EGOV 211850Z 10010KT 9999 FEW030 03/M00 Q1014 BLU
EGOV 211850Z 10010KT 9999 FEW030 03/M00 Q1014 BLU
EGOV 211950Z 10009KT CAVOK 03/M00 Q1014 BLU

Airport on the map: